sensor_id;sensor_type;location;lat;lon;timestamp;pressure;altitude;pressure_sealevel;temperature;humidity
10060;BME280;5069;49.306;8.636;2022-09-09T00:05:23;100035.88;;;18.13;89.10
10060;BME280;5069;49.306;8.636;2022-09-09T00:12:08;100040.06;;;18.04;90.13
10060;BME280;5069;49.306;8.636;2022-09-09T00:15:19;100025.97;;;18.02;89.92
10060;BME280;5069;49.306;8.636;2022-09-09T00:21:33;100019.59;;;18.05;89.47
10060;BME280;5069;49.306;8.636;2022-09-09T00:24:43;100027.47;;;18.06;89.24
10060;BME280;5069;49.306;8.636;2022-09-09T00:27:47;100022.47;;;18.02;90.18
10060;BME280;5069;49.306;8.636;2022-09-09T00:30:49;100023.41;;;18.01;89.59
10060;BME280;5069;49.306;8.636;2022-09-09T00:33:51;100023.53;;;17.99;89.44
10060;BME280;5069;49.306;8.636;2022-09-09T00:36:55;100021.06;;;17.96;90.72
10060;BME280;5069;49.306;8.636;2022-09-09T00:40:00;100023.41;;;18.01;90.13
10060;BME280;5069;49.306;8.636;2022-09-09T00:46:41;100022.88;;;18.08;89.28
10060;BME280;5069;49.306;8.636;2022-09-09T00:56:26;100030.69;;;17.99;91.66
10060;BME280;5069;49.306;8.636;2022-09-09T01:06:26;100035.03;;;18.00;91.72
10060;BME280;5069;49.306;8.636;2022-09-09T01:09:39;100041.34;;;17.99;91.91
10060;BME280;5069;49.306;8.636;2022-09-09T01:12:46;100040.50;;;17.98;91.77
10060;BME280;5069;49.306;8.636;2022-09-09T01:15:53;100034.06;;;18.01;91.75
10060;BME280;5069;49.306;8.636;2022-09-09T01:19:04;100033.13;;;18.02;91.95
10060;BME280;5069;49.306;8.636;2022-09-09T01:28:54;100027.25;;;18.09;92.94
10060;BME280;5069;49.306;8.636;2022-09-09T01:32:39;100030.03;;;18.08;93.21
10060;BME280;5069;49.306;8.636;2022-09-09T01:35:50;100024.03;;;18.17;93.01
10060;BME280;5069;49.306;8.636;2022-09-09T01:38:58;100030.13;;;18.19;92.95
10060;BME280;5069;49.306;8.636;2022-09-09T01:42:01;100040.03;;;18.17;92.49
10060;BME280;5069;49.306;8.636;2022-09-09T01:45:04;100041.97;;;18.15;92.80
10060;BME280;5069;49.306;8.636;2022-09-09T01:48:05;100047.31;;;18.15;92.89
10060;BME280;5069;49.306;8.636;2022-09-09T01:51:16;100046.03;;;18.08;93.58
10060;BME280;5069;49.306;8.636;2022-09-09T01:54:20;100046.56;;;18.00;94.46
10060;BME280;5069;49.306;8.636;2022-09-09T01:57:31;100045.84;;;17.98;94.61
10060;BME280;5069;49.306;8.636;2022-09-09T02:00:37;100039.53;;;17.99;94.28
10060;BME280;5069;49.306;8.636;2022-09-09T02:03:44;100033.22;;;18.00;94.49
10060;BME280;5069;49.306;8.636;2022-09-09T02:06:55;100039.41;;;18.01;94.75
10060;BME280;5069;49.306;8.636;2022-09-09T02:10:26;100034.75;;;18.04;94.94
10060;BME280;5069;49.306;8.636;2022-09-09T02:13:40;100028.66;;;18.02;94.44
10060;BME280;5069;49.306;8.636;2022-09-09T02:16:53;100030.69;;;17.99;94.94
10060;BME280;5069;49.306;8.636;2022-09-09T02:20:05;100028.13;;;17.97;96.03
10060;BME280;5069;49.306;8.636;2022-09-09T02:23:18;100029.16;;;17.95;96.53
10060;BME280;5069;49.306;8.636;2022-09-09T02:26:23;100033.88;;;18.04;95.44
10060;BME280;5069;49.306;8.636;2022-09-09T02:29:34;100035.59;;;17.92;96.26
10060;BME280;5069;49.306;8.636;2022-09-09T02:32:39;100043.50;;;17.94;96.64
10060;BME280;5069;49.306;8.636;2022-09-09T02:35:46;100037.50;;;17.90;97.02
10060;BME280;5069;49.306;8.636;2022-09-09T02:38:52;100031.53;;;17.87;98.21
10060;BME280;5069;49.306;8.636;2022-09-09T02:42:03;100036.78;;;17.88;97.93
10060;BME280;5069;49.306;8.636;2022-09-09T02:45:08;100036.88;;;17.87;97.66
10060;BME280;5069;49.306;8.636;2022-09-09T02:48:27;100035.03;;;18.00;96.61
10060;BME280;5069;49.306;8.636;2022-09-09T02:51:40;100040.06;;;17.92;97.73
10060;BME280;5069;49.306;8.636;2022-09-09T02:54:49;100042.72;;;17.92;98.23
10060;BME280;5069;49.306;8.636;2022-09-09T02:57:54;100034.50;;;17.95;97.21
10060;BME280;5069;49.306;8.636;2022-09-09T03:00:57;100022.97;;;17.94;96.97
10060;BME280;5069;49.306;8.636;2022-09-09T03:04:02;100024.25;;;17.89;96.73
10060;BME280;5069;49.306;8.636;2022-09-09T03:07:06;100018.94;;;17.89;96.72
10060;BME280;5069;49.306;8.636;2022-09-09T03:10:08;100029.59;;;17.89;96.35
10060;BME280;5069;49.306;8.636;2022-09-09T03:13:10;100019.56;;;17.80;96.76
10060;BME280;5069;49.306;8.636;2022-09-09T03:16:13;100025.56;;;17.70;97.82
10060;BME280;5069;49.306;8.636;2022-09-09T03:19:20;100023.63;;;17.72;97.93
10060;BME280;5069;49.306;8.636;2022-09-09T03:22:24;100017.56;;;17.70;98.73
10060;BME280;5069;49.306;8.636;2022-09-09T03:25:27;100021.63;;;17.76;98.50
10060;BME280;5069;49.306;8.636;2022-09-09T03:28:29;100027.81;;;17.77;97.58
10060;BME280;5069;49.306;8.636;2022-09-09T03:31:34;100027.56;;;17.67;98.26
10060;BME280;5069;49.306;8.636;2022-09-09T03:34:37;100031.41;;;17.63;98.56
10060;BME280;5069;49.306;8.636;2022-09-09T03:37:44;100027.13;;;17.60;98.77
10060;BME280;5069;49.306;8.636;2022-09-09T03:40:52;100032.34;;;17.62;99.04
10060;BME280;5069;49.306;8.636;2022-09-09T03:43:57;100016.16;;;17.65;99.54
10060;BME280;5069;49.306;8.636;2022-09-09T03:47:00;100028.41;;;17.67;98.98
10060;BME280;5069;49.306;8.636;2022-09-09T03:50:02;100027.56;;;17.67;98.96
10060;BME280;5069;49.306;8.636;2022-09-09T03:53:06;100031.09;;;17.67;99.09
10060;BME280;5069;49.306;8.636;2022-09-09T03:56:08;100025.56;;;17.70;98.63
10060;BME280;5069;49.306;8.636;2022-09-09T03:59:11;100023.44;;;17.75;98.63
10060;BME280;5069;49.306;8.636;2022-09-09T04:02:13;100026.94;;;17.76;98.71
10060;BME280;5069;49.306;8.636;2022-09-09T04:05:14;100031.09;;;17.80;98.91
10060;BME280;5069;49.306;8.636;2022-09-09T04:08:20;100027.25;;;17.84;98.86
10060;BME280;5069;49.306;8.636;2022-09-09T04:11:23;100035.38;;;17.83;98.42
10060;BME280;5069;49.306;8.636;2022-09-09T04:14:27;100037.19;;;17.82;97.73
10060;BME280;5069;49.306;8.636;2022-09-09T04:17:31;100045.19;;;17.82;98.56
10060;BME280;5069;49.306;8.636;2022-09-09T04:20:34;100036.44;;;17.80;99.11
10060;BME280;5069;49.306;8.636;2022-09-09T04:23:36;100044.34;;;17.82;98.89
10060;BME280;5069;49.306;8.636;2022-09-09T04:26:38;100046.25;;;17.80;98.44
10060;BME280;5069;49.306;8.636;2022-09-09T04:29:41;100047.00;;;17.82;98.22
10060;BME280;5069;49.306;8.636;2022-09-09T04:32:42;100052.44;;;17.80;97.72
10060;BME280;5069;49.306;8.636;2022-09-09T04:35:49;100050.63;;;17.81;98.20
10060;BME280;5069;49.306;8.636;2022-09-09T04:38:52;100054.16;;;17.81;97.56
10060;BME280;5069;49.306;8.636;2022-09-09T04:41:54;100055.19;;;17.79;97.73
10060;BME280;5069;49.306;8.636;2022-09-09T04:44:57;100054.66;;;17.73;97.43
10060;BME280;5069;49.306;8.636;2022-09-09T04:47:58;100059.44;;;17.68;97.98
10060;BME280;5069;49.306;8.636;2022-09-09T04:51:05;100060.94;;;17.72;97.96
10060;BME280;5069;49.306;8.636;2022-09-09T04:54:08;100067.78;;;17.77;97.99
10060;BME280;5069;49.306;8.636;2022-09-09T04:57:10;100063.28;;;17.77;97.27
10060;BME280;5069;49.306;8.636;2022-09-09T05:00:18;100060.75;;;17.75;97.01
10060;BME280;5069;49.306;8.636;2022-09-09T05:03:20;100061.16;;;17.69;97.98
10060;BME280;5069;49.306;8.636;2022-09-09T05:06:22;100066.28;;;17.72;98.59
10060;BME280;5069;49.306;8.636;2022-09-09T05:09:28;100065.13;;;17.77;98.15
10060;BME280;5069;49.306;8.636;2022-09-09T05:12:30;100065.84;;;17.79;98.04
10060;BME280;5069;49.306;8.636;2022-09-09T05:15:32;100068.53;;;17.79;97.41
10060;BME280;5069;49.306;8.636;2022-09-09T05:18:33;100069.28;;;17.81;97.53
10060;BME280;5069;49.306;8.636;2022-09-09T05:21:35;100075.66;;;17.78;97.28
10060;BME280;5069;49.306;8.636;2022-09-09T05:24:37;100074.50;;;17.69;98.35
10060;BME280;5069;49.306;8.636;2022-09-09T05:27:39;100080.56;;;17.71;98.33
10060;BME280;5069;49.306;8.636;2022-09-09T05:30:41;100095.50;;;17.74;98.17
10060;BME280;5069;49.306;8.636;2022-09-09T05:33:45;100090.63;;;17.81;98.06
10060;BME280;5069;49.306;8.636;2022-09-09T05:36:48;100087.44;;;17.88;96.00
10060;BME280;5069;49.306;8.636;2022-09-09T05:39:50;100081.88;;;17.91;94.84
10060;BME280;5069;49.306;8.636;2022-09-09T05:42:51;100085.06;;;17.84;94.74
10060;BME280;5069;49.306;8.636;2022-09-09T05:46:09;100093.47;;;17.77;96.08
10060;BME280;5069;49.306;8.636;2022-09-09T05:49:12;100091.03;;;17.74;95.20
10060;BME280;5069;49.306;8.636;2022-09-09T05:52:15;100094.03;;;17.83;94.98
10060;BME280;5069;49.306;8.636;2022-09-09T05:55:16;100090.38;;;17.84;93.98
10060;BME280;5069;49.306;8.636;2022-09-09T05:58:19;100093.38;;;17.79;94.93
10060;BME280;5069;49.306;8.636;2022-09-09T06:04:23;100095.84;;;17.82;93.69
10060;BME280;5069;49.306;8.636;2022-09-09T06:07:25;100095.31;;;17.90;93.78
10060;BME280;5069;49.306;8.636;2022-09-09T06:10:28;100100.63;;;17.90;92.46
10060;BME280;5069;49.306;8.636;2022-09-09T06:13:30;100099.38;;;17.83;94.37
10060;BME280;5069;49.306;8.636;2022-09-09T06:16:32;100104.06;;;17.92;94.07
10060;BME280;5069;49.306;8.636;2022-09-09T06:19:34;100097.91;;;18.04;92.84
10060;BME280;5069;49.306;8.636;2022-09-09T06:22:36;100100.88;;;18.12;93.47
10060;BME280;5069;49.306;8.636;2022-09-09T06:25:37;100088.50;;;18.24;92.23
10060;BME280;5069;49.306;8.636;2022-09-09T06:28:42;100092.97;;;18.36;91.20
10060;BME280;5069;49.306;8.636;2022-09-09T06:31:44;100102.59;;;18.38;91.65
10060;BME280;5069;49.306;8.636;2022-09-09T06:34:49;100092.72;;;18.51;89.41
10060;BME280;5069;49.306;8.636;2022-09-09T06:37:51;100097.66;;;18.57;89.42
10060;BME280;5069;49.306;8.636;2022-09-09T06:40:54;100098.94;;;18.65;89.80
10060;BME280;5069;49.306;8.636;2022-09-09T06:43:57;100100.97;;;18.74;88.71
10060;BME280;5069;49.306;8.636;2022-09-09T06:47:07;100102.97;;;18.83;87.23
10060;BME280;5069;49.306;8.636;2022-09-09T06:50:09;100106.50;;;18.83;86.52
10060;BME280;5069;49.306;8.636;2022-09-09T06:53:12;100099.34;;;18.84;86.55
10060;BME280;5069;49.306;8.636;2022-09-09T06:56:24;100105.28;;;19.00;84.55
10060;BME280;5069;49.306;8.636;2022-09-09T06:59:27;100105.63;;;18.83;86.52
10060;BME280;5069;49.306;8.636;2022-09-09T07:02:29;100113.22;;;18.89;86.57
10060;BME280;5069;49.306;8.636;2022-09-09T07:05:32;100109.75;;;18.99;86.22
10060;BME280;5069;49.306;8.636;2022-09-09T07:08:33;100111.06;;;18.94;85.60
10060;BME280;5069;49.306;8.636;2022-09-09T07:11:40;100121.31;;;19.00;84.87
10060;BME280;5069;49.306;8.636;2022-09-09T07:14:44;100112.47;;;19.23;84.34
10060;BME280;5069;49.306;8.636;2022-09-09T07:17:46;100107.78;;;19.38;83.32
10060;BME280;5069;49.306;8.636;2022-09-09T07:20:53;100114.94;;;19.37;81.75
10060;BME280;5069;49.306;8.636;2022-09-09T07:23:57;100112.78;;;19.42;81.57
10060;BME280;5069;49.306;8.636;2022-09-09T07:26:59;100116.19;;;19.45;81.56
10060;BME280;5069;49.306;8.636;2022-09-09T07:30:01;100115.81;;;19.38;82.59
10060;BME280;5069;49.306;8.636;2022-09-09T07:33:06;100110.09;;;19.42;81.37
10060;BME280;5069;49.306;8.636;2022-09-09T07:39:14;100115.53;;;19.54;81.44
10060;BME280;5069;49.306;8.636;2022-09-09T07:42:21;100118.50;;;19.62;81.49
10060;BME280;5069;49.306;8.636;2022-09-09T07:45:23;100117.13;;;19.56;80.40
10060;BME280;5069;49.306;8.636;2022-09-09T07:48:24;100115.63;;;19.65;82.40
10060;BME280;5069;49.306;8.636;2022-09-09T07:51:33;100119.25;;;19.64;81.10
10060;BME280;5069;49.306;8.636;2022-09-09T07:54:35;100117.66;;;19.61;79.58
10060;BME280;5069;49.306;8.636;2022-09-09T07:57:39;100118.97;;;19.56;81.11
10060;BME280;5069;49.306;8.636;2022-09-09T08:00:41;100130.50;;;19.80;78.86
10060;BME280;5069;49.306;8.636;2022-09-09T08:03:46;100122.00;;;19.86;79.99
10060;BME280;5069;49.306;8.636;2022-09-09T08:06:54;100123.03;;;20.18;80.08
10060;BME280;5069;49.306;8.636;2022-09-09T08:09:58;100121.66;;;20.59;73.96
10060;BME280;5069;49.306;8.636;2022-09-09T08:13:04;100123.47;;;20.70;73.86
10060;BME280;5069;49.306;8.636;2022-09-09T08:16:22;100120.91;;;21.01;72.15
10060;BME280;5069;49.306;8.636;2022-09-09T08:19:25;100117.69;;;21.08;71.13
10060;BME280;5069;49.306;8.636;2022-09-09T08:22:27;100113.94;;;21.21;71.59
10060;BME280;5069;49.306;8.636;2022-09-09T08:25:29;100120.59;;;21.38;68.97
10060;BME280;5069;49.306;8.636;2022-09-09T08:28:30;100127.16;;;21.45;68.34
10060;BME280;5069;49.306;8.636;2022-09-09T08:31:37;100128.66;;;21.27;67.68
10060;BME280;5069;49.306;8.636;2022-09-09T08:34:40;100127.84;;;21.15;70.01
10060;BME280;5069;49.306;8.636;2022-09-09T08:37:53;100145.75;;;20.92;71.39
10060;BME280;5069;49.306;8.636;2022-09-09T08:41:03;100153.78;;;20.59;76.06
10060;BME280;5069;49.306;8.636;2022-09-09T08:44:14;100163.28;;;20.17;83.17
10060;BME280;5069;49.306;8.636;2022-09-09T08:50:49;100166.94;;;19.70;86.94
10060;BME280;5069;49.306;8.636;2022-09-09T08:53:58;100167.31;;;19.53;90.78
10060;BME280;5069;49.306;8.636;2022-09-09T08:57:03;100151.75;;;19.47;91.35
10060;BME280;5069;49.306;8.636;2022-09-09T09:00:10;100155.44;;;19.57;89.80
10060;BME280;5069;49.306;8.636;2022-09-09T09:03:15;100148.38;;;19.56;92.08
10060;BME280;5069;49.306;8.636;2022-09-09T09:06:30;100149.34;;;19.55;91.52
10060;BME280;5069;49.306;8.636;2022-09-09T09:09:57;100151.59;;;19.72;91.44
10060;BME280;5069;49.306;8.636;2022-09-09T09:17:21;100159.69;;;19.94;88.55
10060;BME280;5069;49.306;8.636;2022-09-09T09:19:57;100152.25;;;20.10;86.46
10060;BME280;5069;49.306;8.636;2022-09-09T09:23:02;100148.16;;;20.40;86.18
10060;BME280;5069;49.306;8.636;2022-09-09T09:26:07;100143.81;;;20.72;81.94
10060;BME280;5069;49.306;8.636;2022-09-09T09:29:16;100145.75;;;20.92;78.66
10060;BME280;5069;49.306;8.636;2022-09-09T09:32:19;100147.31;;;21.06;78.82
10060;BME280;5069;49.306;8.636;2022-09-09T09:35:22;100140.16;;;21.18;79.56
10060;BME280;5069;49.306;8.636;2022-09-09T09:38:27;100141.34;;;21.25;75.34
10060;BME280;5069;49.306;8.636;2022-09-09T09:41:50;100144.34;;;21.42;75.18
10060;BME280;5069;49.306;8.636;2022-09-09T09:44:53;100134.38;;;21.65;72.62
10060;BME280;5069;49.306;8.636;2022-09-09T09:48:01;100130.50;;;21.69;71.64
10060;BME280;5069;49.306;8.636;2022-09-09T09:51:13;100126.88;;;21.48;71.89
10060;BME280;5069;49.306;8.636;2022-09-09T09:54:31;100124.50;;;21.34;74.06
10060;BME280;5069;49.306;8.636;2022-09-09T09:57:36;100130.31;;;21.50;73.08
10060;BME280;5069;49.306;8.636;2022-09-09T10:00:50;100145.56;;;21.70;71.06
10060;BME280;5069;49.306;8.636;2022-09-09T10:03:58;100135.94;;;21.47;71.46
10060;BME280;5069;49.306;8.636;2022-09-09T10:07:10;100145.19;;;21.43;70.85
10060;BME280;5069;49.306;8.636;2022-09-09T10:10:20;100148.16;;;21.29;71.46
10060;BME280;5069;49.306;8.636;2022-09-09T10:17:23;100148.50;;;21.13;72.85
10060;BME280;5069;49.306;8.636;2022-09-09T10:20:42;100150.38;;;21.13;72.53
10060;BME280;5069;49.306;8.636;2022-09-09T10:27:37;100142.56;;;21.10;71.39
10060;BME280;5069;49.306;8.636;2022-09-09T10:41:13;100133.63;;;21.74;64.83
10060;BME280;5069;49.306;8.636;2022-09-09T10:44:50;100123.78;;;21.96;63.60
10060;BME280;5069;49.306;8.636;2022-09-09T10:48:45;100114.50;;;22.00;60.96
10060;BME280;5069;49.306;8.636;2022-09-09T11:01:28;100107.28;;;22.72;61.22
10060;BME280;5069;49.306;8.636;2022-09-09T11:04:35;100113.44;;;22.63;61.47
10060;BME280;5069;49.306;8.636;2022-09-09T11:07:43;100105.47;;;22.52;63.38
10060;BME280;5069;49.306;8.636;2022-09-09T11:11:12;100106.28;;;22.73;62.95
10060;BME280;5069;49.306;8.636;2022-09-09T11:14:21;100096.56;;;22.82;59.70
10060;BME280;5069;49.306;8.636;2022-09-09T11:17:26;100103.19;;;22.47;59.23
10060;BME280;5069;49.306;8.636;2022-09-09T11:20:33;100103.00;;;22.39;59.31
10060;BME280;5069;49.306;8.636;2022-09-09T11:23:46;100097.38;;;22.42;59.83
10060;BME280;5069;49.306;8.636;2022-09-09T11:26:58;100106.75;;;22.57;59.23
10060;BME280;5069;49.306;8.636;2022-09-09T11:30:16;100109.81;;;22.43;60.12
10060;BME280;5069;49.306;8.636;2022-09-09T11:33:53;100106.78;;;22.67;59.41
10060;BME280;5069;49.306;8.636;2022-09-09T11:37:38;100110.03;;;22.91;57.32
10060;BME280;5069;49.306;8.636;2022-09-09T11:40:45;100098.00;;;22.86;56.75
10060;BME280;5069;49.306;8.636;2022-09-09T11:43:52;100098.28;;;22.83;56.78
10060;BME280;5069;49.306;8.636;2022-09-09T11:46:53;100085.91;;;23.20;57.67
10060;BME280;5069;49.306;8.636;2022-09-09T11:50:27;100087.03;;;23.27;53.82
10060;BME280;5069;49.306;8.636;2022-09-09T11:53:29;100073.88;;;23.15;55.19
10060;BME280;5069;49.306;8.636;2022-09-09T11:56:46;100076.72;;;23.32;55.59
10060;BME280;5069;49.306;8.636;2022-09-09T11:59:51;100074.19;;;23.40;54.16
10060;BME280;5069;49.306;8.636;2022-09-09T12:02:56;100076.19;;;23.58;53.30
10060;BME280;5069;49.306;8.636;2022-09-09T12:05:58;100071.53;;;23.69;53.02
10060;BME280;5069;49.306;8.636;2022-09-09T12:12:42;100063.44;;;23.69;52.72
10060;BME280;5069;49.306;8.636;2022-09-09T12:15:58;100067.53;;;23.44;52.31
10060;BME280;5069;49.306;8.636;2022-09-09T12:19:26;100069.34;;;23.05;51.78
10060;BME280;5069;49.306;8.636;2022-09-09T12:22:37;100076.13;;;23.00;55.07
10060;BME280;5069;49.306;8.636;2022-09-09T12:25:49;100080.03;;;22.96;56.28
10060;BME280;5069;49.306;8.636;2022-09-09T12:29:00;100082.44;;;22.49;58.80
10060;BME280;5069;49.306;8.636;2022-09-09T12:32:13;100089.72;;;22.17;59.47
10060;BME280;5069;49.306;8.636;2022-09-09T12:35:20;100081.75;;;21.53;62.59
10060;BME280;5069;49.306;8.636;2022-09-09T12:38:34;100074.38;;;21.46;65.58
10060;BME280;5069;49.306;8.636;2022-09-09T12:41:36;100078.31;;;21.41;65.93
10060;BME280;5069;49.306;8.636;2022-09-09T12:44:38;100074.25;;;21.47;67.37
10060;BME280;5069;49.306;8.636;2022-09-09T12:47:45;100073.69;;;21.32;68.06
10060;BME280;5069;49.306;8.636;2022-09-09T12:50:51;100086.19;;;21.43;67.79
10060;BME280;5069;49.306;8.636;2022-09-09T12:53:54;100085.84;;;21.36;67.64
10060;BME280;5069;49.306;8.636;2022-09-09T12:56:57;100088.41;;;21.38;67.43
10060;BME280;5069;49.306;8.636;2022-09-09T13:00:19;100083.91;;;21.38;66.52
10060;BME280;5069;49.306;8.636;2022-09-09T13:03:22;100088.69;;;21.35;67.60
10060;BME280;5069;49.306;8.636;2022-09-09T13:06:29;100089.03;;;21.41;66.46
10060;BME280;5069;49.306;8.636;2022-09-09T13:09:31;100084.13;;;21.47;65.57
10060;BME280;5069;49.306;8.636;2022-09-09T13:12:33;100079.63;;;21.47;64.83
10060;BME280;5069;49.306;8.636;2022-09-09T13:15:34;100079.63;;;21.47;63.89
10060;BME280;5069;49.306;8.636;2022-09-09T13:18:40;100086.47;;;21.40;63.36
10060;BME280;5069;49.306;8.636;2022-09-09T13:21:42;100101.81;;;21.38;62.98
10060;BME280;5069;49.306;8.636;2022-09-09T13:24:43;100124.53;;;21.23;63.94
10060;BME280;5069;49.306;8.636;2022-09-09T13:27:57;100136.63;;;20.84;69.72
10060;BME280;5069;49.306;8.636;2022-09-09T13:31:19;100131.78;;;20.09;75.51
10060;BME280;5069;49.306;8.636;2022-09-09T13:34:32;100127.28;;;19.64;80.66
10060;BME280;5069;49.306;8.636;2022-09-09T13:37:36;100130.84;;;19.15;82.42
10060;BME280;5069;49.306;8.636;2022-09-09T13:40:38;100116.00;;;18.75;88.08
10060;BME280;5069;49.306;8.636;2022-09-09T13:43:44;100104.38;;;18.76;92.70
10060;BME280;5069;49.306;8.636;2022-09-09T13:50:25;100080.72;;;18.95;95.37
10060;BME280;5069;49.306;8.636;2022-09-09T13:53:27;100083.63;;;19.16;96.90
10060;BME280;5069;49.306;8.636;2022-09-09T13:56:29;100074.94;;;19.49;95.94
10060;BME280;5069;49.306;8.636;2022-09-09T13:59:31;100075.88;;;19.83;95.32
10060;BME280;5069;49.306;8.636;2022-09-09T14:02:52;100068.06;;;20.14;90.07
10060;BME280;5069;49.306;8.636;2022-09-09T14:05:56;100074.69;;;20.44;88.66
10060;BME280;5069;49.306;8.636;2022-09-09T14:08:58;100079.25;;;20.86;85.79
10060;BME280;5069;49.306;8.636;2022-09-09T14:12:00;100065.19;;;21.27;83.49
10060;BME280;5069;49.306;8.636;2022-09-09T14:15:03;100064.19;;;21.60;81.10
10060;BME280;5069;49.306;8.636;2022-09-09T14:18:04;100063.41;;;21.90;78.06
10060;BME280;5069;49.306;8.636;2022-09-09T14:21:06;100061.38;;;21.82;75.73
10060;BME280;5069;49.306;8.636;2022-09-09T14:24:07;100067.56;;;22.15;73.91
10060;BME280;5069;49.306;8.636;2022-09-09T14:27:09;100060.66;;;22.22;74.39
10060;BME280;5069;49.306;8.636;2022-09-09T14:30:11;100058.50;;;22.16;73.95
10060;BME280;5069;49.306;8.636;2022-09-09T14:33:15;100071.94;;;22.46;71.11
10060;BME280;5069;49.306;8.636;2022-09-09T14:36:17;100057.78;;;22.44;70.35
10060;BME280;5069;49.306;8.636;2022-09-09T14:39:18;100058.78;;;22.43;69.11
10060;BME280;5069;49.306;8.636;2022-09-09T14:42:20;100067.25;;;22.79;70.83
10060;BME280;5069;49.306;8.636;2022-09-09T14:45:22;100069.34;;;23.15;70.31
10060;BME280;5069;49.306;8.636;2022-09-09T14:48:24;100069.22;;;23.36;70.04
10060;BME280;5069;49.306;8.636;2022-09-09T14:51:26;100062.94;;;22.97;65.57
10060;BME280;5069;49.306;8.636;2022-09-09T14:54:33;100066.47;;;22.88;67.08
10060;BME280;5069;49.306;8.636;2022-09-09T14:57:34;100070.22;;;22.45;69.23
10060;BME280;5069;49.306;8.636;2022-09-09T15:00:37;100081.97;;;22.14;71.41
10060;BME280;5069;49.306;8.636;2022-09-09T15:03:39;100084.22;;;21.77;71.73
10060;BME280;5069;49.306;8.636;2022-09-09T15:06:41;100084.38;;;21.75;71.37
10060;BME280;5069;49.306;8.636;2022-09-09T15:09:45;100085.59;;;21.71;69.22
10060;BME280;5069;49.306;8.636;2022-09-09T15:12:48;100076.09;;;21.47;70.66
10060;BME280;5069;49.306;8.636;2022-09-09T15:15:50;100059.91;;;21.37;71.48
10060;BME280;5069;49.306;8.636;2022-09-09T15:18:55;100066.88;;;21.28;76.16
10060;BME280;5069;49.306;8.636;2022-09-09T15:21:57;100060.72;;;21.17;78.50
10060;BME280;5069;49.306;8.636;2022-09-09T15:24:58;100065.34;;;21.15;80.43
10060;BME280;5069;49.306;8.636;2022-09-09T15:27:59;100074.34;;;21.02;79.87
10060;BME280;5069;49.306;8.636;2022-09-09T15:31:05;100070.50;;;20.95;79.71
10060;BME280;5069;49.306;8.636;2022-09-09T15:34:08;100079.38;;;20.96;79.55
10060;BME280;5069;49.306;8.636;2022-09-09T15:37:10;100085.34;;;20.88;80.57
10060;BME280;5069;49.306;8.636;2022-09-09T15:40:14;100089.13;;;20.86;79.10
10060;BME280;5069;49.306;8.636;2022-09-09T15:43:15;100090.44;;;20.91;79.45
10060;BME280;5069;49.306;8.636;2022-09-09T15:49:23;100095.34;;;20.86;85.80
10060;BME280;5069;49.306;8.636;2022-09-09T15:52:28;100096.19;;;20.76;88.83
10060;BME280;5069;49.306;8.636;2022-09-09T15:55:29;100101.44;;;20.66;91.30
10060;BME280;5069;49.306;8.636;2022-09-09T15:58:30;100094.38;;;20.76;95.74
10060;BME280;5069;49.306;8.636;2022-09-09T16:01:33;100096.16;;;20.98;98.37
10060;BME280;5069;49.306;8.636;2022-09-09T16:04:35;100092.94;;;20.61;94.69
10060;BME280;5069;49.306;8.636;2022-09-09T16:07:36;100097.53;;;20.81;95.07
10060;BME280;5069;49.306;8.636;2022-09-09T16:10:38;100102.88;;;20.92;89.59
10060;BME280;5069;49.306;8.636;2022-09-09T16:13:40;100098.25;;;20.94;93.51
10060;BME280;5069;49.306;8.636;2022-09-09T16:16:42;100105.66;;;20.91;94.72
10060;BME280;5069;49.306;8.636;2022-09-09T16:19:43;100099.75;;;20.65;90.63
10060;BME280;5069;49.306;8.636;2022-09-09T16:22:45;100098.28;;;20.50;92.79
10060;BME280;5069;49.306;8.636;2022-09-09T16:25:56;100107.53;;;20.57;96.19
10060;BME280;5069;49.306;8.636;2022-09-09T16:29:02;100106.44;;;20.59;99.82
10060;BME280;5069;49.306;8.636;2022-09-09T16:32:04;100105.84;;;20.56;100.00
10060;BME280;5069;49.306;8.636;2022-09-09T16:35:05;100099.97;;;20.51;99.76
10060;BME280;5069;49.306;8.636;2022-09-09T16:38:07;100099.38;;;20.47;100.00
10060;BME280;5069;49.306;8.636;2022-09-09T16:41:10;100094.13;;;20.35;99.92
10060;BME280;5069;49.306;8.636;2022-09-09T16:44:14;100100.69;;;20.31;100.00
10060;BME280;5069;49.306;8.636;2022-09-09T16:47:16;100104.56;;;20.27;99.59
10060;BME280;5069;49.306;8.636;2022-09-09T16:50:19;100106.75;;;20.21;100.00
10060;BME280;5069;49.306;8.636;2022-09-09T16:53:20;100104.19;;;20.09;99.78
10060;BME280;5069;49.306;8.636;2022-09-09T16:56:24;100106.41;;;19.80;97.16
10060;BME280;5069;49.306;8.636;2022-09-09T16:59:26;100116.78;;;19.61;96.88
10060;BME280;5069;49.306;8.636;2022-09-09T17:02:27;100114.16;;;19.48;96.92
10060;BME280;5069;49.306;8.636;2022-09-09T17:05:29;100122.97;;;19.37;96.95
10060;BME280;5069;49.306;8.636;2022-09-09T17:08:31;100131.63;;;19.41;99.21
10060;BME280;5069;49.306;8.636;2022-09-09T17:11:35;100133.03;;;19.47;99.22
10060;BME280;5069;49.306;8.636;2022-09-09T17:14:36;100126.34;;;19.28;96.78
10060;BME280;5069;49.306;8.636;2022-09-09T17:17:38;100126.22;;;19.30;96.67
10060;BME280;5069;49.306;8.636;2022-09-09T17:20:40;100149.56;;;19.15;98.14
10060;BME280;5069;49.306;8.636;2022-09-09T17:23:47;100137.22;;;19.02;100.00
10060;BME280;5069;49.306;8.636;2022-09-09T17:26:49;100130.50;;;18.96;100.00
10060;BME280;5069;49.306;8.636;2022-09-09T17:29:50;100126.97;;;18.95;100.00
10060;BME280;5069;49.306;8.636;2022-09-09T17:32:52;100130.72;;;18.93;100.00
10060;BME280;5069;49.306;8.636;2022-09-09T17:35:54;100130.44;;;18.85;100.00
10060;BME280;5069;49.306;8.636;2022-09-09T17:38:55;100139.09;;;18.76;100.00
10060;BME280;5069;49.306;8.636;2022-09-09T17:41:57;100134.59;;;18.64;100.00
10060;BME280;5069;49.306;8.636;2022-09-09T17:44:59;100132.03;;;18.49;100.00
10060;BME280;5069;49.306;8.636;2022-09-09T17:48:00;100129.47;;;18.35;100.00
10060;BME280;5069;49.306;8.636;2022-09-09T17:51:06;100130.53;;;18.45;100.00